Archer, Wyoming
Current Conditions -  °F | °C
As of 10:53 AM on Thursday 23 Oct 2014 (Local Time) from KCYS Reporting Station
Clear Clear  
Wind Chill: 60°   Ceiling: Unl
Heat Index: 60°   Visibility: 10mi
Dew Point: 32°   Wind: 12mph
Humidity: 35%   Direction: 210°SSW
Pressure: 30.18"   Gusts: 21mph
Location:  41.4091°N, 104.861°W
Report Text: KCYS 231653Z 21010G18KT 10SM CLR 16/00 A3018 RMK AO2 SLP173 T01560000
Loading
Personal Weather Stations






























Interactive Weather Map
Tropical Storm Tracking
New forecast layout! Learn more

10-Day Weather Forecast

Advertisements
Track Severe Weather on mobile